< < Back
Terminal Aerodrome Forecast


Current Version              Previous Versions:   1  2  3  4  5  6  7  8  9  

Terminal Aerodrome Forecast

318
FTUS42 KGSP 211502 AAB
TAFHKY
TAF AMD
KHKY 211502Z 2115/2212 00000KT 4SM BR BKN009 OVC016
     FM211600 05003KT P6SM OVC025
     FM220200 07005KT P6SM BKN019
     FM220600 05006KT P6SM -RA OVC021
     FM220800 05006KT P6SM -RA OVC016=

Latest METAR

325
SAUS70 KWBC 211800 RRC
MTRHKY
METAR KHKY 211753Z 00000KT 8SM BR OVC016 07/02 A3021 RMK AO2 SLP226
T00670022 10067 20044 58019


USA.gov is the U.S. government's official web portal to all federal, state and local government web resources and services.